createdAt,value
2017-08-27T00:00:16.759Z,100800.05
2017-08-27T00:02:44.163Z,100798.27
2017-08-27T00:05:11.568Z,100802.66
2017-08-27T00:07:38.970Z,100803.37
2017-08-27T00:10:06.381Z,100796.59
2017-08-27T00:12:33.783Z,100795.16
2017-08-27T00:15:01.186Z,100799.08
2017-08-27T00:17:28.591Z,100795.83
2017-08-27T00:19:55.988Z,100795.19
2017-08-27T00:22:23.403Z,100802.91
2017-08-27T00:24:50.803Z,100808.73
2017-08-27T00:27:18.203Z,100801.77
2017-08-27T00:29:45.599Z,100805.89
2017-08-27T00:32:13.003Z,100808.23
2017-08-27T00:34:40.437Z,100804.92
2017-08-27T00:37:07.884Z,100807.42
2017-08-27T00:39:35.490Z,100810.62
2017-08-27T00:42:02.892Z,100809.39
2017-08-27T00:44:30.294Z,100806.76
2017-08-27T00:46:57.690Z,100808.66
2017-08-27T00:49:25.122Z,100810.05
2017-08-27T00:51:52.506Z,100807.55
2017-08-27T00:54:19.913Z,100810.55
2017-08-27T00:56:47.315Z,100817.66
2017-08-27T00:59:14.711Z,100817.52
2017-08-27T01:01:42.116Z,100812.63
2017-08-27T01:04:09.506Z,100816.67
2017-08-27T01:06:36.912Z,100802.91
2017-08-27T01:09:04.345Z,100814.40
2017-08-27T01:11:31.747Z,100808.62
2017-08-27T01:13:59.138Z,100815.02
2017-08-27T01:16:26.553Z,100820.55
2017-08-27T01:18:53.943Z,100820.67
2017-08-27T01:21:21.342Z,100826.69
2017-08-27T01:23:48.738Z,100828.34
2017-08-27T01:26:16.148Z,100825.48
2017-08-27T01:28:43.547Z,100828.31
2017-08-27T01:31:10.960Z,100830.59
2017-08-27T01:33:38.346Z,100829.38
2017-08-27T01:36:05.750Z,100833.91
2017-08-27T01:38:33.147Z,100832.63
2017-08-27T01:41:00.553Z,100837.39
2017-08-27T01:43:27.939Z,100838.21
2017-08-27T01:45:55.358Z,100840.06
2017-08-27T01:48:22.963Z,100838.62
2017-08-27T01:50:50.363Z,100836.61
2017-08-27T01:53:17.758Z,100844.41
2017-08-27T01:55:45.183Z,100844.60
2017-08-27T01:58:12.575Z,100849.63
2017-08-27T02:00:39.974Z,100851.53
2017-08-27T02:03:07.379Z,100857.34
2017-08-27T02:05:34.783Z,100857.37
2017-08-27T02:08:02.179Z,100866.25
2017-08-27T02:10:29.575Z,100867.67
2017-08-27T02:12:56.977Z,100868.86
2017-08-27T02:15:24.374Z,100876.33
2017-08-27T02:17:51.785Z,100874.91
2017-08-27T02:20:19.187Z,100872.62
2017-08-27T02:22:46.595Z,100876.55
2017-08-27T02:25:13.995Z,100878.81
2017-08-27T02:27:41.403Z,100871.67
2017-08-27T02:30:08.799Z,100877.06
2017-08-27T02:32:36.211Z,100874.59
2017-08-27T02:35:03.606Z,100872.43
2017-08-27T02:37:31.016Z,100873.55
2017-08-27T02:39:58.407Z,100871.30
2017-08-27T02:42:25.829Z,100868.41
2017-08-27T02:44:53.215Z,100868.41
2017-08-27T02:47:20.641Z,100866.78
2017-08-27T02:49:48.238Z,100867.58
2017-08-27T02:52:15.637Z,100869.50
2017-08-27T02:54:43.030Z,100862.51
2017-08-27T02:57:10.431Z,100863.27
2017-08-27T02:59:37.835Z,100869.30
2017-08-27T03:02:05.238Z,100872.43
2017-08-27T03:04:32.639Z,100867.77
2017-08-27T03:07:00.039Z,100879.05
2017-08-27T03:09:27.454Z,100878.00
2017-08-27T03:11:54.860Z,100873.20
2017-08-27T03:14:22.267Z,100876.72
2017-08-27T03:16:49.663Z,100876.50
2017-08-27T03:19:17.068Z,100879.18
2017-08-27T03:21:44.479Z,100878.63
2017-08-27T03:24:11.878Z,100879.59
2017-08-27T03:26:39.278Z,100880.73
2017-08-27T03:29:06.687Z,100884.22
2017-08-27T03:31:34.091Z,100887.79
2017-08-27T03:34:01.483Z,100885.05
2017-08-27T03:36:28.890Z,100886.09
2017-08-27T03:38:56.275Z,100889.53
2017-08-27T03:41:23.683Z,100890.92
2017-08-27T03:43:51.120Z,100894.00
2017-08-27T03:46:18.530Z,100890.71
2017-08-27T03:48:45.941Z,100895.00
2017-08-27T03:51:13.338Z,100900.05
2017-08-27T03:53:40.737Z,100891.82
2017-08-27T03:56:08.150Z,100893.45
2017-08-27T03:58:35.552Z,100892.89
2017-08-27T04:01:02.971Z,100899.35
2017-08-27T04:03:30.371Z,100899.79
2017-08-27T04:05:57.987Z,100907.11
2017-08-27T04:08:25.392Z,100911.69
2017-08-27T04:10:52.798Z,100905.16
2017-08-27T04:13:20.195Z,100908.06
2017-08-27T04:15:47.866Z,100914.13
2017-08-27T04:18:15.259Z,100912.03
2017-08-27T04:20:42.655Z,100916.11
2017-08-27T04:23:10.059Z,100919.91
2017-08-27T04:25:37.476Z,100919.61
2017-08-27T04:28:04.897Z,100922.76
2017-08-27T04:30:32.295Z,100920.48
2017-08-27T04:32:59.931Z,100923.09
2017-08-27T04:35:27.332Z,100924.94
2017-08-27T04:37:54.743Z,100925.47
2017-08-27T04:40:22.151Z,100928.95
2017-08-27T04:42:49.767Z,100929.59
2017-08-27T04:45:17.171Z,100930.65
2017-08-27T04:47:44.570Z,100932.13
2017-08-27T04:50:11.974Z,100933.69
2017-08-27T04:52:39.379Z,100934.17
2017-08-27T04:55:06.774Z,100934.52
2017-08-27T04:57:34.206Z,100934.61
2017-08-27T05:00:01.614Z,100936.70
2017-08-27T05:02:29.019Z,100937.35
2017-08-27T05:04:56.416Z,100943.20
2017-08-27T05:07:23.817Z,100938.91
2017-08-27T05:09:51.222Z,100945.96
2017-08-27T05:12:18.639Z,100943.87
2017-08-27T05:14:46.260Z,100949.31
2017-08-27T05:17:13.664Z,100954.83
2017-08-27T05:19:41.066Z,100958.84
2017-08-27T05:22:08.456Z,100955.37
2017-08-27T05:24:35.859Z,100957.34
2017-08-27T05:27:03.252Z,100967.35
2017-08-27T05:29:30.655Z,100967.52
2017-08-27T05:31:58.053Z,100967.23
2017-08-27T05:34:25.457Z,100970.09
2017-08-27T05:36:52.855Z,100976.73
2017-08-27T05:39:20.265Z,100977.34
2017-08-27T05:41:47.673Z,100977.77
2017-08-27T05:44:15.291Z,100980.86
2017-08-27T05:46:42.914Z,100987.34
2017-08-27T05:49:10.319Z,100989.36
2017-08-27T05:51:37.726Z,100991.14
2017-08-27T05:54:05.147Z,100990.38
2017-08-27T05:56:32.551Z,100993.47
2017-08-27T05:58:59.962Z,100994.69
2017-08-27T06:01:27.358Z,101001.02
2017-08-27T06:03:54.771Z,101002.28
2017-08-27T06:06:22.182Z,101002.52
2017-08-27T06:08:49.804Z,100997.86
2017-08-27T06:11:17.203Z,101002.78
2017-08-27T06:13:44.614Z,101007.92
2017-08-27T06:16:12.011Z,101007.66
2017-08-27T06:18:39.420Z,101003.27
2017-08-27T06:21:06.815Z,101007.05
2017-08-27T06:23:34.215Z,101008.73
2017-08-27T06:26:01.619Z,101003.50
2017-08-27T06:28:29.031Z,101012.64
2017-08-27T06:30:56.431Z,101007.20
2017-08-27T06:33:23.835Z,101009.64
2017-08-27T06:35:51.244Z,101017.85
2017-08-27T06:38:18.858Z,101021.58
2017-08-27T06:40:46.267Z,101020.31
2017-08-27T06:43:13.671Z,101029.69
2017-08-27T06:45:41.086Z,101028.03
2017-08-27T06:48:08.487Z,101025.78
2017-08-27T06:50:35.897Z,101033.45
2017-08-27T06:53:03.295Z,101030.63
2017-08-27T06:55:30.694Z,101033.23
2017-08-27T06:57:58.099Z,101037.61
2017-08-27T07:00:25.520Z,101042.49
2017-08-27T07:02:52.914Z,101038.50
2017-08-27T07:05:20.330Z,101048.44
2017-08-27T07:07:47.723Z,101046.84
2017-08-27T07:10:15.127Z,101052.97
2017-08-27T07:12:42.534Z,101055.92
2017-08-27T07:15:09.934Z,101058.55
2017-08-27T07:17:37.352Z,101059.78
2017-08-27T07:20:04.763Z,101062.45
2017-08-27T07:22:32.172Z,101063.73
2017-08-27T07:24:59.567Z,101065.30
2017-08-27T07:27:27.189Z,101072.70
2017-08-27T07:29:54.597Z,101066.02
2017-08-27T07:32:21.994Z,101066.62
2017-08-27T07:34:49.396Z,101064.16
2017-08-27T07:37:16.798Z,101064.02
2017-08-27T07:39:44.198Z,101062.25
2017-08-27T07:42:11.603Z,101067.39
2017-08-27T07:44:41.852Z,101068.31
2017-08-27T07:47:09.253Z,101072.43
2017-08-27T07:49:36.648Z,101074.66
2017-08-27T07:52:04.032Z,101071.27
2017-08-27T07:54:31.431Z,101077.42
2017-08-27T07:57:00.750Z,101078.05
2017-08-27T07:59:28.146Z,101087.06
2017-08-27T08:01:55.536Z,101082.70
2017-08-27T08:04:22.940Z,101082.41
2017-08-27T08:06:50.339Z,101081.55
2017-08-27T08:09:17.998Z,101082.39
2017-08-27T08:11:45.431Z,101087.19
2017-08-27T08:14:12.830Z,101091.80
2017-08-27T08:16:40.235Z,101088.73
2017-08-27T08:19:07.649Z,101091.16
2017-08-27T08:21:35.039Z,101094.79
2017-08-27T08:24:02.439Z,101094.68
2017-08-27T08:26:30.085Z,101094.67
2017-08-27T08:28:57.495Z,101094.09
2017-08-27T08:31:24.911Z,101097.34
2017-08-27T08:33:52.308Z,101094.79
2017-08-27T08:36:19.706Z,101096.11
2017-08-27T08:38:47.101Z,101093.20
2017-08-27T08:41:14.504Z,101096.64
2017-08-27T08:43:41.895Z,101098.17
2017-08-27T08:46:09.299Z,101106.40
2017-08-27T08:48:36.683Z,101100.63
2017-08-27T08:51:04.079Z,101101.20
2017-08-27T08:53:31.475Z,101107.68
2017-08-27T08:55:58.881Z,101093.42
2017-08-27T08:58:26.273Z,101099.80
2017-08-27T09:00:53.883Z,101103.84
2017-08-27T09:03:21.270Z,101110.44
2017-08-27T09:05:48.669Z,101107.97
2017-08-27T09:08:16.051Z,101110.04
2017-08-27T09:10:44.279Z,101107.63
2017-08-27T09:13:11.651Z,101109.84
2017-08-27T09:15:39.043Z,101110.69
2017-08-27T09:18:06.435Z,101115.86
2017-08-27T09:20:33.826Z,101115.88
2017-08-27T09:23:01.215Z,101124.98
2017-08-27T09:25:28.624Z,101120.89
2017-08-27T09:27:55.998Z,101117.76
2017-08-27T09:30:23.390Z,101118.86
2017-08-27T09:32:50.776Z,101124.39
2017-08-27T09:35:18.171Z,101118.68
2017-08-27T09:37:45.570Z,101119.73
2017-08-27T09:40:12.955Z,101118.76
2017-08-27T09:42:40.352Z,101119.34
2017-08-27T09:45:07.748Z,101119.63
2017-08-27T09:47:35.142Z,101125.72
2017-08-27T09:50:02.542Z,101133.29
2017-08-27T09:52:29.936Z,101131.66
2017-08-27T09:54:57.322Z,101132.11
2017-08-27T09:57:24.715Z,101131.38
2017-08-27T09:59:52.104Z,101131.80
2017-08-27T10:02:19.494Z,101135.13
2017-08-27T10:04:46.880Z,101141.17
2017-08-27T10:07:14.271Z,101145.30
2017-08-27T10:09:41.667Z,101139.60
2017-08-27T10:12:09.071Z,101145.31
2017-08-27T10:14:36.668Z,101146.89
2017-08-27T10:17:04.079Z,101147.60
2017-08-27T10:19:31.451Z,101148.40
2017-08-27T10:21:58.859Z,101150.16
2017-08-27T10:24:26.248Z,101152.15
2017-08-27T10:26:53.640Z,101155.14
2017-08-27T10:29:21.242Z,101152.64
2017-08-27T10:31:48.631Z,101157.00
2017-08-27T10:34:16.267Z,101163.23
2017-08-27T10:36:43.655Z,101161.70
2017-08-27T10:39:11.050Z,101157.87
2017-08-27T10:41:38.443Z,101140.88
2017-08-27T10:44:05.847Z,101160.37
2017-08-27T10:46:33.238Z,101156.05
2017-08-27T10:49:00.638Z,101153.73
2017-08-27T10:51:28.026Z,101154.63
2017-08-27T10:53:55.413Z,101156.25
2017-08-27T10:56:22.804Z,101156.64
2017-08-27T10:58:50.205Z,101159.53
2017-08-27T11:01:17.586Z,101153.36
2017-08-27T11:03:44.988Z,101154.98
2017-08-27T11:06:12.374Z,101156.97
2017-08-27T11:08:39.762Z,101157.90
2017-08-27T11:11:07.155Z,101162.73
2017-08-27T11:13:34.553Z,101162.73
2017-08-27T11:16:01.939Z,101158.50
2017-08-27T11:18:29.330Z,101156.33
2017-08-27T11:20:56.767Z,101154.88
2017-08-27T11:23:24.375Z,101156.74
2017-08-27T11:25:51.764Z,101160.58
2017-08-27T11:28:19.167Z,101158.56
2017-08-27T11:30:46.554Z,101166.97
2017-08-27T11:33:14.167Z,101155.95
2017-08-27T11:35:41.556Z,101159.58
2017-08-27T11:38:08.967Z,101161.07
2017-08-27T11:40:36.351Z,101159.91
2017-08-27T11:43:03.744Z,101161.55
2017-08-27T11:45:31.143Z,101159.22
2017-08-27T11:47:58.558Z,101157.98
2017-08-27T11:50:25.998Z,101154.19
2017-08-27T11:52:53.404Z,101163.86
2017-08-27T11:55:20.803Z,101162.19
2017-08-27T11:57:48.192Z,101158.49
2017-08-27T12:00:15.586Z,101170.41
2017-08-27T12:02:42.983Z,101161.59
2017-08-27T12:05:10.397Z,101155.84
2017-08-27T12:07:37.779Z,101156.63
2017-08-27T12:10:05.171Z,101167.27
2017-08-27T12:12:32.563Z,101167.56
2017-08-27T12:14:59.955Z,101162.29
2017-08-27T12:17:27.364Z,101164.20
2017-08-27T12:19:54.747Z,101164.41
2017-08-27T12:22:22.161Z,101164.01
2017-08-27T12:24:49.554Z,101167.45
2017-08-27T12:27:16.939Z,101164.00
2017-08-27T12:29:44.326Z,101162.64
2017-08-27T12:32:11.719Z,101168.61
2017-08-27T12:34:39.134Z,101166.36
2017-08-27T12:37:06.527Z,101164.38
2017-08-27T12:39:33.915Z,101167.45
2017-08-27T12:42:01.315Z,101158.94
2017-08-27T12:44:28.696Z,101158.11
2017-08-27T12:46:56.095Z,101163.77
2017-08-27T12:49:23.509Z,101163.91
2017-08-27T12:51:50.894Z,101165.13
2017-08-27T12:54:18.293Z,101164.54
2017-08-27T12:56:45.679Z,101163.34
2017-08-27T12:59:13.075Z,101158.71
2017-08-27T13:01:40.471Z,101159.21
2017-08-27T13:04:07.863Z,101162.09
2017-08-27T13:06:35.266Z,101164.45
2017-08-27T13:09:02.654Z,101162.68
2017-08-27T13:11:30.276Z,101163.77
2017-08-27T13:13:57.664Z,101157.45
2017-08-27T13:16:25.071Z,101157.11
2017-08-27T13:18:52.460Z,101162.27
2017-08-27T13:21:19.851Z,101157.23
2017-08-27T13:23:47.248Z,101168.87
2017-08-27T13:26:14.636Z,101174.24
2017-08-27T13:28:42.027Z,101168.28
2017-08-27T13:31:09.419Z,101169.37
2017-08-27T13:33:37.031Z,101169.81
2017-08-27T13:36:04.428Z,101169.88
2017-08-27T13:38:31.815Z,101170.03
2017-08-27T13:40:59.203Z,101168.51
2017-08-27T13:43:26.599Z,101173.66
2017-08-27T13:45:53.999Z,101169.67
2017-08-27T13:48:21.406Z,101172.87
2017-08-27T13:50:48.787Z,101171.06
2017-08-27T13:53:16.191Z,101163.58
2017-08-27T13:55:43.587Z,101169.48
2017-08-27T13:58:10.977Z,101171.35
2017-08-27T14:00:38.375Z,101166.89
2017-08-27T14:03:05.988Z,101172.80
2017-08-27T14:05:33.593Z,101168.61
2017-08-27T14:08:00.979Z,101178.81
2017-08-27T14:10:28.370Z,101172.64
2017-08-27T14:12:55.764Z,101172.47
2017-08-27T14:15:23.159Z,101162.65
2017-08-27T14:17:50.565Z,101162.13
2017-08-27T14:20:18.155Z,101159.37
2017-08-27T14:22:45.555Z,101163.05
2017-08-27T14:25:12.967Z,101162.22
2017-08-27T14:27:40.356Z,101171.34
2017-08-27T14:30:07.768Z,101172.94
2017-08-27T14:32:35.163Z,101175.81
2017-08-27T14:35:02.777Z,101179.17
2017-08-27T14:37:30.172Z,101179.14
2017-08-27T14:39:57.587Z,101175.61
2017-08-27T14:42:24.971Z,101179.65
2017-08-27T14:44:52.362Z,101174.91
2017-08-27T14:47:19.767Z,101186.05
2017-08-27T14:49:47.371Z,101180.13
2017-08-27T14:52:14.763Z,101175.25
2017-08-27T14:54:42.156Z,101176.16
2017-08-27T14:57:10.240Z,101182.20
2017-08-27T14:59:37.627Z,101172.44
2017-08-27T15:02:05.036Z,101174.48
2017-08-27T15:04:32.420Z,101174.98
2017-08-27T15:07:00.026Z,101177.01
2017-08-27T15:09:27.651Z,101179.55
2017-08-27T15:11:55.031Z,101181.81
2017-08-27T15:14:22.428Z,101183.37
2017-08-27T15:16:49.818Z,101179.86
2017-08-27T15:19:17.207Z,101184.56
2017-08-27T15:21:44.595Z,101179.23
2017-08-27T15:24:11.983Z,101180.39
2017-08-27T15:26:39.387Z,101189.70
2017-08-27T15:29:06.793Z,101183.73
2017-08-27T15:31:34.183Z,101185.39
2017-08-27T15:34:01.567Z,101180.77
2017-08-27T15:36:28.958Z,101182.56
2017-08-27T15:38:56.343Z,101178.33
2017-08-27T15:41:23.997Z,101189.40
2017-08-27T15:43:51.426Z,101184.05
2017-08-27T15:46:19.024Z,101190.35
2017-08-27T15:48:46.458Z,101184.39
2017-08-27T15:51:13.846Z,101187.61
2017-08-27T15:53:41.238Z,101187.34
2017-08-27T15:56:08.627Z,101179.84
2017-08-27T15:58:36.058Z,101183.45
2017-08-27T16:01:03.439Z,101189.52
2017-08-27T16:03:30.831Z,101191.41
2017-08-27T16:05:58.222Z,101187.02
2017-08-27T16:08:25.613Z,101189.27
2017-08-27T16:10:53.011Z,101185.58
2017-08-27T16:13:20.399Z,101191.20
2017-08-27T16:15:47.799Z,101186.58
2017-08-27T16:18:15.195Z,101188.54
2017-08-27T16:20:42.577Z,101190.07
2017-08-27T16:23:09.991Z,101193.12
2017-08-27T16:25:37.383Z,101196.24
2017-08-27T16:28:04.783Z,101184.06
2017-08-27T16:30:32.184Z,101189.45
2017-08-27T16:32:59.571Z,101189.47
2017-08-27T16:35:26.977Z,101188.87
2017-08-27T16:37:54.377Z,101188.28
2017-08-27T16:40:21.771Z,101189.25
2017-08-27T16:42:49.167Z,101189.63
2017-08-27T16:45:16.571Z,101194.53
2017-08-27T16:47:43.952Z,101196.06
2017-08-27T16:50:11.342Z,101195.92
2017-08-27T16:52:38.749Z,101190.53
2017-08-27T16:55:06.126Z,101191.06
2017-08-27T16:57:33.514Z,101195.89
2017-08-27T17:00:00.924Z,101199.00
2017-08-27T17:02:28.523Z,101194.36
2017-08-27T17:04:56.127Z,101189.75
2017-08-27T17:07:23.511Z,101191.94
2017-08-27T17:09:50.923Z,101189.33
2017-08-27T17:12:18.529Z,101192.03
2017-08-27T17:14:45.932Z,101197.09
2017-08-27T17:17:13.317Z,101197.44
2017-08-27T17:19:42.096Z,101192.20
2017-08-27T17:22:09.480Z,101197.58
2017-08-27T17:24:36.883Z,101193.23
2017-08-27T17:27:04.381Z,101192.27
2017-08-27T17:29:31.762Z,101193.06
2017-08-27T17:31:59.163Z,101193.06
2017-08-27T17:34:26.561Z,101196.30
2017-08-27T17:36:53.947Z,101200.72
2017-08-27T17:39:21.335Z,101200.07
2017-08-27T17:41:48.728Z,101194.41
2017-08-27T17:44:16.123Z,101206.78
2017-08-27T17:46:43.615Z,101207.48
2017-08-27T17:49:11.122Z,101206.08
2017-08-27T17:51:38.510Z,101209.19
2017-08-27T17:54:05.915Z,101211.12
2017-08-27T17:56:33.300Z,101208.02
2017-08-27T17:59:00.902Z,101214.38
2017-08-27T18:01:28.299Z,101218.39
2017-08-27T18:03:55.691Z,101219.50
2017-08-27T18:06:23.084Z,101220.75
2017-08-27T18:08:50.488Z,101231.83
2017-08-27T18:11:17.883Z,101223.58
2017-08-27T18:13:45.280Z,101220.83
2017-08-27T18:16:12.681Z,101227.92
2017-08-27T18:18:40.064Z,101227.13
2017-08-27T18:21:07.675Z,101229.03
2017-08-27T18:23:35.092Z,101230.19
2017-08-27T18:26:02.474Z,101233.99
2017-08-27T18:28:29.866Z,101238.31
2017-08-27T18:30:57.255Z,101238.95
2017-08-27T18:33:24.650Z,101233.47
2017-08-27T18:35:52.038Z,101239.13
2017-08-27T18:38:19.432Z,101242.64
2017-08-27T18:40:46.844Z,101243.30
2017-08-27T18:43:14.240Z,101251.33
2017-08-27T18:45:41.622Z,101252.16
2017-08-27T18:48:09.106Z,101252.82
2017-08-27T18:50:36.693Z,101255.48
2017-08-27T18:53:04.095Z,101264.55
2017-08-27T18:55:31.483Z,101264.59
2017-08-27T18:57:58.931Z,101264.67
2017-08-27T19:00:26.303Z,101269.14
2017-08-27T19:02:59.203Z,101276.98
2017-08-27T19:08:06.661Z,101275.46
2017-08-27T19:10:34.038Z,101278.52
2017-08-27T19:13:01.427Z,101274.67
2017-08-27T19:15:28.825Z,101276.11
2017-08-27T19:17:56.242Z,101273.66
2017-08-27T19:20:23.633Z,101276.77
2017-08-27T19:22:51.034Z,101279.08
2017-08-27T19:25:18.432Z,101277.31
2017-08-27T19:27:45.815Z,101280.20
2017-08-27T19:30:13.216Z,101278.89
2017-08-27T19:32:40.608Z,101283.54
2017-08-27T19:35:08.009Z,101277.70
2017-08-27T19:37:35.395Z,101288.13
2017-08-27T19:40:02.787Z,101289.47
2017-08-27T19:42:30.176Z,101293.23
2017-08-27T19:44:57.580Z,101297.23
2017-08-27T19:47:24.966Z,101297.27
2017-08-27T19:49:52.368Z,101294.91
2017-08-27T19:52:19.769Z,101290.69
2017-08-27T19:54:47.203Z,101296.95
2017-08-27T19:57:14.586Z,101302.12
2017-08-27T19:59:41.979Z,101299.42
2017-08-27T20:04:43.199Z,101310.74
2017-08-27T20:07:10.583Z,101307.38
2017-08-27T20:09:38.191Z,101309.14
2017-08-27T20:12:05.588Z,101313.85
2017-08-27T20:14:32.979Z,101311.33
2017-08-27T20:19:34.243Z,101315.09
2017-08-27T20:22:01.631Z,101320.45
2017-08-27T20:24:29.027Z,101322.05
2017-08-27T20:26:56.428Z,101318.72
2017-08-27T20:29:23.819Z,101320.08
2017-08-27T20:31:51.215Z,101319.16
2017-08-27T20:34:18.615Z,101315.96
2017-08-27T20:36:46.011Z,101323.62
2017-08-27T20:39:13.410Z,101316.25
2017-08-27T20:41:40.803Z,101317.77
2017-08-27T20:44:08.199Z,101317.77
2017-08-27T20:46:35.579Z,101321.35
2017-08-27T20:49:02.983Z,101327.94
2017-08-27T20:51:30.383Z,101327.25
2017-08-27T20:53:57.778Z,101330.91
2017-08-27T20:56:25.183Z,101330.18
2017-08-27T20:58:52.579Z,101330.00
2017-08-27T21:01:20.194Z,101338.48
2017-08-27T21:03:47.579Z,101339.78
2017-08-27T21:06:14.978Z,101342.61
2017-08-27T21:08:42.378Z,101350.17
2017-08-27T21:11:09.774Z,101342.98
2017-08-27T21:13:37.179Z,101347.95
2017-08-27T21:16:04.581Z,101347.91
2017-08-27T21:18:31.978Z,101346.41
2017-08-27T21:20:59.371Z,101348.19
2017-08-27T21:23:26.762Z,101349.27
2017-08-27T21:25:54.156Z,101344.16
2017-08-27T21:28:21.543Z,101348.61
2017-08-27T21:30:48.942Z,101349.11
2017-08-27T21:33:16.335Z,101354.96
2017-08-27T21:35:43.736Z,101352.22
2017-08-27T21:38:11.123Z,101357.30
2017-08-27T21:40:38.518Z,101356.46
2017-08-27T21:43:05.911Z,101359.07
2017-08-27T21:45:33.322Z,101363.81
2017-08-27T21:48:00.727Z,101365.70
2017-08-27T21:50:28.116Z,101361.20
2017-08-27T21:52:55.511Z,101370.56
2017-08-27T21:55:22.899Z,101369.80
2017-08-27T21:57:50.295Z,101375.32
2017-08-27T22:00:17.699Z,101374.19
2017-08-27T22:02:45.095Z,101371.28
2017-08-27T22:05:12.482Z,101375.94
2017-08-27T22:07:39.879Z,101369.40
2017-08-27T22:10:07.283Z,101369.27
2017-08-27T22:12:34.678Z,101373.89
2017-08-27T22:15:02.070Z,101374.70
2017-08-27T22:17:29.468Z,101372.72
2017-08-27T22:19:56.851Z,101370.67
2017-08-27T22:22:24.243Z,101372.02
2017-08-27T22:24:51.631Z,101376.59
2017-08-27T22:27:19.026Z,101374.39
2017-08-27T22:29:46.684Z,101380.86
2017-08-27T22:32:14.347Z,101375.38
2017-08-27T22:34:41.739Z,101370.91
2017-08-27T22:37:09.710Z,101373.02
2017-08-27T22:39:37.103Z,101374.91
2017-08-27T22:42:04.504Z,101372.91
2017-08-27T22:44:31.895Z,101379.48
2017-08-27T22:46:59.290Z,101380.72
2017-08-27T22:49:26.691Z,101381.02
2017-08-27T22:51:54.099Z,101381.66
2017-08-27T22:54:21.491Z,101377.72
2017-08-27T22:56:48.895Z,101375.83
2017-08-27T22:59:16.292Z,101381.97
2017-08-27T23:01:43.691Z,101381.06
2017-08-27T23:04:11.091Z,101384.49
2017-08-27T23:06:38.507Z,101383.76
2017-08-27T23:09:05.903Z,101388.43
2017-08-27T23:11:33.295Z,101387.16
2017-08-27T23:14:00.691Z,101383.54
2017-08-27T23:16:28.085Z,101384.72
2017-08-27T23:18:55.479Z,101380.17
2017-08-27T23:21:22.927Z,101387.25
2017-08-27T23:23:50.318Z,101384.14
2017-08-27T23:26:17.712Z,101383.24
2017-08-27T23:28:45.106Z,101376.52
2017-08-27T23:31:12.502Z,101389.67
2017-08-27T23:33:39.901Z,101385.73
2017-08-27T23:36:07.282Z,101382.25
2017-08-27T23:38:34.679Z,101376.25
2017-08-27T23:41:02.064Z,101372.50
2017-08-27T23:43:29.475Z,101378.23
2017-08-27T23:45:56.869Z,101370.86
2017-08-27T23:48:24.254Z,101369.91
2017-08-27T23:50:51.647Z,101367.15
2017-08-27T23:53:19.037Z,101368.30
2017-08-27T23:55:46.435Z,101365.20
2017-08-27T23:58:13.827Z,101371.85
